Latest  Newer  Older  Last 2 hours animation  Current image  Latest image 
Rain/snow radar  Infrared sat images 
Real-time lightning map

All time is UTC (add 2 hours to UTC in wintertime, 3 hours to UTC in DST for Latvia local time)

2019/01/17 18:20 EVRA 171820Z 25005KT 220V280 9999 FEW015 SCT018 OVC028 00/M01 Q0991 R36/390195 NOSIG
2019/01/17 18:20 EVLA 171820Z AUTO 20003KT 9999 FEW019/// SCT029/// M01/M02 Q0992
2019/01/17 18:20 EVVA 171820Z AUTO 33011KT 9999 SCT034 OVC040 01/M04 Q0992
2019/01/17 18:20 EYKA 171820Z 23011KT 170V260 9999 SCT018 BKN045 02/M00 Q0994 R08/29//95
2019/01/17 18:24 EYPA 171824Z VRB01KT 2900 RASN OVC022 00/M00 Q0993 R19/2///95
2019/01/17 18:20 EYSA 171820Z 23009KT 9999 OVC005 01/01 Q0992 R32R/29//95 YLO1 TEMPO BKN003 YLO2
2019/01/17 18:20 EYVI 171820Z 22013KT 9999 BKN008 BKN024 01/00 Q0995 R19/2///95 NOSIG
2019/01/17 15:50 EEKA 171550Z 31011KT 9999 OVC015 M02/M04 Q0986
2019/01/17 17:50 EEKE 171750Z AUTO 33010KT 270V010 9999NDV BKN024 OVC029 M01/M05 Q0989
2019/01/17 13:50 EEPU 171350Z 25010KT 3600 -RASN BR BKN009 OVC027 01/01 Q0982
2019/01/17 18:20 EETN 171820Z 31012KT 9999 -FZDZ -SN SCT008 BKN012 OVC016 M05/M06 Q0986 R08/490293 NOSIG
2019/01/17 17:50 EETU 171750Z AUTO 26018KT 5000 -SN BKN011/// OVC026/// M00/M01 Q0984 RESHUP RESN
   RIGA AIRPORT     EVRA               56 55N  023 58E   10   X     T          6 LV
   LIEPAJA INTL     EVLA        26406  56 31N  021 06E    4   X                8 LV
   VENTPILS         EVVA               57 21N  021 33E    6   X                8 LV
   KAUNAS           EYKA               54 54N  023 55E   77   X     T          6 LT
   PALANGA INTL     EYPA               55 55N  021 03E   10   X                6 LT
   SIAULIAI INTL    EYSA               55 54N  023 24E  135   X     T          6 LT
   VILNIUS INTL     EYVI        26730  54 38N  025 17E  197   X     T          6 LT
   KARDLA           EEKA        26116  58 59N  022 50E    4   X                8 EE
   KURESSAARE       EEKE               58 14N  022 31E    4   X                8 EE
   PARNU            EEPU               58 25N  024 28E   14   X                8 EE
   TALLINN          EETN        26038  59 24N  024 49E   40   X     T          8 EE
   TARTU            EETU               58 19N  026 41E   67   X                8 EE

cloud coverage image from sat24.com and METAR data from weather.noaa.gov